Aérodrome :
LOGIN :

S'inscrire | Disclaimer

   EN    FR    IT 

 










Légende :    VFR   VFR Marginal   IFR   IFR Intensif   IFR Très Intensif
Visi : 
Plafond : 
>= 8 km
>= 3000ft
5 à 8 km
1000 à 3000 ft
1500m à 5 km
500 à 1000 ft
800 à 1500m
200 à 500 ft
< 800m
< 200 ft
Symboles :   Orages  Brouillard  Fortes neiges  Fortes précipitations  Vent > 20 kt
SIGMETs :   Divers  Orages  Givrage  Turbulence  Onde Orograph.  Cendres Volcan.







- Altitude de l'aérodrome : 348 ft
- Code IATA : LDV
- Voir les cartes d'approche


LFRJ - Landivisiau

DERNIER METAR :
  • 120830Z AUTO 20008KT 9999 FEW019/// BKN042/// BKN050/// 07/07 Q1018 NOSIG

METARs EXPIRÉS :
  • 120800Z AUTO 21008KT 9999 FEW022 OVC039 07/07 Q1018 NOSIG
  • 120730Z AUTO 20007KT 9999 BKN015 BKN022 BKN037 07/07 Q1018 NOSIG
  • 120700Z AUTO 19005KT 9999 -DZ BKN016 BKN030 OVC040 08/07 Q1018 TEMPO RADZ BKN012
  • 120630Z AUTO 17003KT 5000 DZ BR BKN013 BKN020 BKN028 08/07 Q1018 BECMG NSW BKN016 BKN025
  • 120600Z AUTO 19005KT 9999 BKN015 BKN029 BKN046 08/07 Q1018 NOSIG
  • 120530Z AUTO 19006KT 9999 BKN016 BKN026 BKN036 08/07 Q1018 NOSIG

TAF TAF LFRJ
Valide du 12 à 09h jusqu'au 12 à 18h UTC


120800Z 1209/1218 18007KT 9999 BKN015 BKN023 BKN045
BECMG 1216/1218 BKN007
Pas de NOTAMs connus pour ce terrain.
1 SIGMET publié pour la FIR Brest (LFRR) :
 
Turbulence forte
LFRR SIGMET 2 VALID 120800/121200 LFPW
LFRR BREST FIR/UIR SEV TURB FCST WI N4915 W00545 - N4945 W00245 - N4700 W00015 - N4630 W00015 - N4630 W00130 - N4530 W00145 - N4915 W00545 FL150/330 STNR NC=



MET'MAP, la Météo Aéronautique d'un coup d'oeil ! - Copyright ORBIFLY Décembre 2007 - Disclaimer

ORBIFLY MET'MAP TEAM :

Programmation & Développement : Alexandra Zaïnal
Conception & Développement : Baudouin d'Aumeries
Co-Programmation & Développement : Marc-Olivier Méhu
Soutien technique & logistique : Manuel Goepfert

Contact : metmap@orbifly.com




SOURCES & CREDITS :

   NOAA